Time;durP1;ratioP1;P1;durP2;ratioP2;P2;SDS_P1;SDS_P2;PMS_P1;PMS_P2;Temp;Humidity;BMP_temperature;BMP_pressure;BME280_temperature;BME280_humidity;BME280_pressure;Samples;Min_cycle;Max_cycle;Signal;HPM_P1;HPM_P2
2021/07/24 00:01:24;;;;;;;;;42.00;36.00;;;;;23.40;62.71;100986.88;5113163;28;8831;-74
2021/07/24 00:04:20;;;;;;;;;41.00;35.75;;;;;23.42;62.00;100986.47;5119204;28;8807;-74
2021/07/24 00:07:15;;;;;;;;;32.25;30.50;;;;;23.64;61.53;100990.00;5119524;28;9640;-74
2021/07/24 00:10:11;;;;;;;;;42.00;37.00;;;;;23.74;61.26;100980.63;5119146;28;8834;-74
2021/07/24 00:13:07;;;;;;;;;46.00;38.75;;;;;23.18;61.40;100989.00;5119212;28;8819;-75
2021/07/24 00:16:03;;;;;;;;;50.50;43.00;;;;;23.06;61.98;100986.63;5085455;28;8937;-75
2021/07/24 00:18:59;;;;;;;;;47.75;39.75;;;;;22.90;62.99;100984.28;5099005;28;8839;-74
2021/07/24 00:21:54;;;;;;;;;45.75;38.00;;;;;22.88;64.03;100983.88;5099211;28;8827;-74
2021/07/24 00:24:50;;;;;;;;;47.00;39.50;;;;;22.99;63.21;100987.44;5092907;28;8843;-74
2021/07/24 00:27:45;;;;;;;;;49.00;39.75;;;;;22.85;63.22;100996.00;5108430;28;8829;-74
2021/07/24 00:30:42;;;;;;;;;45.25;36.00;;;;;23.01;63.07;100990.69;5109892;28;8819;-74
2021/07/24 00:33:37;;;;;;;;;44.25;37.00;;;;;23.29;62.16;100995.38;5086284;28;8849;-74
2021/07/24 00:36:33;;;;;;;;;48.50;41.00;;;;;22.94;62.31;100993.53;5110238;28;8809;-74
2021/07/24 00:39:29;;;;;;;;;47.25;39.25;;;;;23.11;62.34;100999.50;5118511;28;8849;-74
2021/07/24 00:42:27;;;;;;;;;48.25;40.75;;;;;23.16;62.61;100994.25;5098373;28;8832;-74
2021/07/24 00:45:25;;;;;;;;;50.25;41.75;;;;;22.82;62.36;100993.13;5112220;28;8821;-74
2021/07/24 00:48:22;;;;;;;;;49.25;41.00;;;;;22.91;62.40;101008.44;5118432;28;8822;-74
2021/07/24 00:51:26;;;;;;;;;45.50;39.00;;;;;22.42;64.31;100995.25;5119355;28;8834;-74
2021/07/24 00:54:21;;;;;;;;;44.50;39.00;;;;;22.53;64.65;100998.81;5104586;28;8821;-74
2021/07/24 00:57:17;;;;;;;;;51.25;40.75;;;;;22.65;63.74;101004.06;5118645;28;8834;-74
2021/07/24 01:00:14;;;;;;;;;50.75;40.75;;;;;22.76;63.67;100990.72;5114688;28;8838;-74
2021/07/24 01:03:09;;;;;;;;;46.50;37.75;;;;;22.77;63.44;100994.34;5115151;28;8988;-74
2021/07/24 01:06:05;;;;;;;;;42.00;36.75;;;;;23.05;62.63;100992.69;5115250;28;8822;-74
2021/07/24 01:09:01;;;;;;;;;45.50;39.00;;;;;23.28;62.46;100996.59;5115576;28;8936;-74
2021/07/24 01:11:56;;;;;;;;;42.00;35.25;;;;;23.09;62.38;100997.09;5115219;28;8833;-74
2021/07/24 01:14:52;;;;;;;;;46.75;39.50;;;;;22.72;62.88;100994.78;5114634;28;8811;-74
2021/07/24 01:17:48;;;;;;;;;44.00;38.25;;;;;22.72;62.69;100991.97;5101449;28;8815;-74
2021/07/24 01:20:45;;;;;;;;;43.50;35.75;;;;;22.39;63.37;100996.03;5101222;28;8838;-73
2021/07/24 01:23:40;;;;;;;;;41.50;36.00;;;;;22.54;64.23;100996.81;5115096;28;8819;-73
2021/07/24 01:26:36;;;;;;;;;47.25;40.50;;;;;22.68;63.79;100997.59;5114819;28;9572;-74
2021/07/24 01:29:31;;;;;;;;;13.25;11.00;;;;;22.82;63.31;100993.94;5114543;28;8928;-74
2021/07/24 01:32:27;;;;;;;;;39.00;34.75;;;;;22.86;63.12;100999.59;5114847;28;8830;-74
2021/07/24 01:35:22;;;;;;;;;45.00;37.50;;;;;23.06;62.53;101000.72;5114834;28;8929;-73
2021/07/24 01:38:19;;;;;;;;;42.25;35.00;;;;;23.21;61.99;100995.84;5115364;28;8827;-74
2021/07/24 01:41:15;;;;;;;;;22.50;21.75;;;;;23.35;61.60;100995.75;5085683;28;8870;-74
2021/07/24 01:44:12;;;;;;;;;45.50;37.75;;;;;23.30;61.19;101002.63;5097781;28;8844;-74
2021/07/24 01:47:07;;;;;;;;;37.75;34.00;;;;;23.40;61.06;101009.44;5093908;28;8832;-74
2021/07/24 01:53:20;;;;;;;;;38.50;34.00;;;;;23.43;61.23;101007.81;5100036;28;8863;-73
2021/07/24 01:56:19;;;;;;;;;41.00;35.25;;;;;23.47;61.12;101008.63;5105029;28;8900;-74
2021/07/24 01:59:17;;;;;;;;;41.50;36.50;;;;;23.44;61.11;101001.75;5093539;28;8828;-74
2021/07/24 02:02:16;;;;;;;;;40.75;35.75;;;;;23.49;60.98;101006.19;5093792;28;8823;-74
2021/07/24 02:05:40;;;;;;;;;36.75;32.75;;;;;23.11;61.79;101005.94;5093685;28;8840;-74
2021/07/24 02:08:36;;;;;;;;;38.25;34.50;;;;;23.20;61.65;101011.16;5093624;28;8858;-74
2021/07/24 02:11:32;;;;;;;;;44.00;37.00;;;;;22.64;63.40;101013.72;5092326;28;8891;-74
2021/07/24 02:14:28;;;;;;;;;39.00;35.25;;;;;23.00;61.40;101008.81;5100158;28;8821;-74
2021/07/24 02:17:28;;;;;;;;;34.50;32.50;;;;;22.61;63.58;101014.50;5113994;28;8825;-74
2021/07/24 02:20:25;;;;;;;;;37.75;34.25;;;;;23.03;62.34;101012.84;5113528;28;8852;-74
2021/07/24 02:23:21;;;;;;;;;37.50;33.50;;;;;23.17;61.53;101011.97;5113369;28;8838;-74
2021/07/24 02:26:17;;;;;;;;;37.25;32.25;;;;;23.30;61.21;101015.94;5113587;28;8833;-74
2021/07/24 02:29:12;;;;;;;;;40.75;34.75;;;;;23.30;61.38;101011.09;5113978;28;8807;-74
2021/07/24 02:32:08;;;;;;;;;42.00;34.50;;;;;23.26;61.23;101010.31;5114186;28;8854;-74
2021/07/24 02:35:05;;;;;;;;;37.50;34.50;;;;;23.34;60.96;101008.28;5113166;28;8942;-74
2021/07/24 02:38:01;;;;;;;;;38.25;34.50;;;;;23.39;60.54;101007.84;5113841;28;8829;-74
2021/07/24 02:40:56;;;;;;;;;38.25;33.75;;;;;23.27;61.04;101014.75;5113209;28;8833;-74
2021/07/24 02:43:52;;;;;;;;;33.00;31.50;;;;;23.30;61.09;101015.94;5112996;28;8964;-74
2021/07/24 02:46:47;;;;;;;;;35.00;32.25;;;;;23.33;60.68;101017.16;5113779;28;8818;-74
2021/07/24 02:49:44;;;;;;;;;32.75;31.00;;;;;23.42;60.63;101018.31;5113272;28;8830;-74
2021/07/24 02:52:40;;;;;;;;;41.00;33.75;;;;;23.43;60.52;101014.25;5113012;28;8840;-74
2021/07/24 02:55:36;;;;;;;;;31.50;29.75;;;;;23.43;60.46;101027.56;5112968;28;8830;-74
2021/07/24 02:58:31;;;;;;;;;36.75;33.00;;;;;23.37;61.08;101017.91;5113449;28;8822;-74
2021/07/24 03:01:27;;;;;;;;;38.50;34.25;;;;;23.45;60.65;101019.50;5093550;28;8830;-74
2021/07/24 03:04:23;;;;;;;;;39.00;33.00;;;;;23.48;60.68;101027.16;5092373;28;8832;-74
2021/07/24 03:07:19;;;;;;;;;34.00;32.00;;;;;23.47;60.58;101023.53;5092480;28;8855;-74
2021/07/24 03:10:14;;;;;;;;;40.50;35.25;;;;;23.29;61.17;101025.63;5093108;28;8820;-74
2021/07/24 03:13:10;;;;;;;;;36.50;33.25;;;;;23.37;61.09;101027.19;5092199;28;8864;-74
2021/07/24 03:16:05;;;;;;;;;37.25;33.75;;;;;23.41;60.75;101027.19;5111227;28;8818;-74
2021/07/24 03:19:01;;;;;;;;;39.00;35.00;;;;;23.42;61.09;101029.59;5112716;28;8817;-74
2021/07/24 03:21:57;;;;;;;;;36.00;32.00;;;;;23.53;60.74;101035.16;5094152;28;9569;-74
2021/07/24 03:24:56;;;;;;;;;33.25;31.75;;;;;23.65;60.51;101031.13;5106658;28;8968;-74
2021/07/24 03:27:52;;;;;;;;;35.75;33.00;;;;;23.71;60.25;101029.47;5113784;28;8849;-73
2021/07/24 03:30:49;;;;;;;;;36.50;32.75;;;;;23.74;60.42;101026.63;5112426;28;8833;-74
2021/07/24 03:33:45;;;;;;;;;40.25;34.50;;;;;23.81;60.17;101031.41;5112544;28;8913;-75
2021/07/24 03:36:40;;;;;;;;;39.50;34.00;;;;;23.84;60.01;101037.03;5112477;28;9575;-74
2021/07/24 03:39:36;;;;;;;;;31.00;30.25;;;;;23.75;60.55;101031.03;5112343;28;8825;-74
2021/07/24 03:42:32;;;;;;;;;40.75;35.75;;;;;23.83;60.62;101037.44;5112550;28;8906;-76
2021/07/24 03:45:00;;;;;;;;;38.75;32.75;;;;;23.78;60.56;101035.09;5112389;28;8835;-74
2021/07/24 03:47:37;;;;;;;;;42.50;34.75;;;;;23.96;60.47;101035.75;5097044;28;8827;-74
2021/07/24 03:50:33;;;;;;;;;35.00;32.75;;;;;23.82;60.68;101030.19;5111076;28;8827;-74
2021/07/24 03:53:28;;;;;;;;;41.00;35.50;;;;;23.70;61.90;101030.69;5111877;28;8896;-74
2021/07/24 03:56:24;;;;;;;;;42.25;34.75;;;;;23.67;61.75;101034.31;5111955;28;9637;-74
2021/07/24 03:59:19;;;;;;;;;34.25;32.00;;;;;23.30;62.43;101036.50;5112460;28;8886;-75
2021/07/24 04:02:19;;;;;;;;;40.50;35.50;;;;;23.35;62.72;101034.47;5112248;28;8948;-74
2021/07/24 04:05:14;;;;;;;;;39.00;34.75;;;;;23.46;62.51;101027.56;5112058;28;8822;-74
2021/07/24 04:08:11;;;;;;;;;34.25;31.75;;;;;23.60;62.28;101032.34;5112406;28;8840;-74
2021/07/24 04:11:08;;;;;;;;;32.75;30.75;;;;;23.66;61.98;101039.16;5096149;28;8823;-74
2021/07/24 04:14:05;;;;;;;;;27.00;26.50;;;;;23.54;60.07;101042.41;5093025;28;8839;-74
2021/07/24 04:17:00;;;;;;;;;19.50;19.50;;;;;23.48;60.14;101046.91;5111768;28;8940;-74
2021/07/24 04:19:56;;;;;;;;;30.50;30.25;;;;;23.46;61.23;101046.50;5111899;28;8833;-73
2021/07/24 04:22:52;;;;;;;;;21.50;21.50;;;;;23.38;59.77;101042.91;5111252;28;8833;-74
2021/07/24 04:25:48;;;;;;;;;18.25;18.25;;;;;23.32;58.99;101052.22;5091280;28;8942;-74
2021/07/24 04:28:43;;;;;;;;;30.25;25.50;;;;;23.47;60.99;101048.13;5078187;28;8816;-74
2021/07/24 04:31:39;;;;;;;;;23.75;22.25;;;;;23.56;59.73;101052.09;5106797;28;8850;-74
2021/07/24 04:34:34;;;;;;;;;24.75;24.75;;;;;23.69;60.51;101054.47;5114544;28;8896;-74
2021/07/24 04:37:30;;;;;;;;;20.00;20.00;;;;;23.76;59.61;101054.44;5115662;28;8841;-74
2021/07/24 04:40:25;;;;;;;;;20.75;19.75;;;;;23.64;59.85;101047.25;5113925;28;8896;-74
2021/07/24 04:43:21;;;;;;;;;18.00;18.00;;;;;23.83;60.14;101057.22;5115677;28;8879;-74
2021/07/24 04:46:16;;;;;;;;;16.25;15.75;;;;;23.84;59.21;101058.81;5116671;27;8818;-74
2021/07/24 04:49:12;;;;;;;;;16.50;16.50;;;;;24.03;58.92;101068.81;5093827;28;8823;-74
2021/07/24 04:52:08;;;;;;;;;13.00;12.00;;;;;23.99;57.74;101068.00;5104545;28;8819;-74
2021/07/24 04:55:04;;;;;;;;;17.50;16.25;;;;;24.13;58.10;101063.06;5115322;28;8958;-74
2021/07/24 04:57:59;;;;;;;;;15.00;11.00;;;;;24.20;58.11;101070.69;5098670;28;8953;-74
2021/07/24 05:00:55;;;;;;;;;22.25;16.75;;;;;24.32;57.02;101063.75;5090415;28;8836;-74
2021/07/24 05:03:51;;;;;;;;;12.80;12.80;;;;;24.20;56.56;101062.22;5114394;28;8803;-74
2021/07/24 05:06:46;;;;;;;;;14.00;14.00;;;;;23.79;56.62;101064.94;5115255;28;8826;-75
2021/07/24 05:09:42;;;;;;;;;14.20;14.20;;;;;23.72;56.27;101067.78;5114679;28;8938;-74
2021/07/24 05:12:40;;;;;;;;;13.25;13.25;;;;;24.12;57.91;101069.94;5112989;28;8875;-74
2021/07/24 05:15:37;;;;;;;;;15.60;15.60;;;;;24.26;56.81;101071.84;5110975;27;8851;-73
2021/07/24 05:18:33;;;;;;;;;15.25;15.25;;;;;24.43;56.06;101072.16;5109832;28;8826;-74
2021/07/24 05:21:29;;;;;;;;;17.75;17.75;;;;;24.40;56.14;101076.63;5104123;28;8844;-74
2021/07/24 05:24:24;;;;;;;;;3.80;3.80;;;;;24.31;54.07;101073.44;5113858;28;8803;-74
2021/07/24 05:27:20;;;;;;;;;22.25;18.75;;;;;24.62;55.82;101077.25;5115097;28;8864;-74
2021/07/24 05:30:16;;;;;;;;;15.20;15.00;;;;;24.76;55.87;101079.91;5107650;28;8887;-73
2021/07/24 05:33:11;;;;;;;;;17.60;17.40;;;;;24.89;55.62;101081.00;5111647;28;9548;-74
2021/07/24 05:36:07;;;;;;;;;17.20;17.20;;;;;25.02;55.36;101072.00;5102477;27;9006;-75
2021/07/24 05:39:02;;;;;;;;;20.40;20.40;;;;;25.21;56.15;101077.84;5111430;28;8821;-74
2021/07/24 05:41:58;;;;;;;;;15.80;15.80;;;;;25.29;53.89;101083.41;5114808;28;9008;-74
2021/07/24 05:44:53;;;;;;;;;17.20;16.60;;;;;25.06;52.44;101086.91;5097520;28;8817;-75
2021/07/24 05:47:49;;;;;;;;;17.00;17.00;;;;;25.31;54.14;101090.28;5094554;28;8875;-74
2021/07/24 05:50:45;;;;;;;;;16.00;16.00;;;;;25.36;51.85;101089.00;5101130;28;8818;-74
2021/07/24 05:53:26;;;;;;;;;17.00;17.00;;;;;25.47;52.78;101093.31;5113942;28;8862;-74
2021/07/24 05:55:53;;;;;;;;;18.20;18.20;;;;;25.41;51.93;101092.16;5096139;28;8841;-74
2021/07/24 05:58:21;;;;;;;;;16.00;16.00;;;;;25.55;51.09;101094.03;5113501;28;8835;-76
2021/07/24 06:00:48;;;;;;;;;52.75;40.75;;;;;25.84;53.04;101087.97;5098170;28;8907;-75
2021/07/24 06:03:16;;;;;;;;;27.75;27.75;;;;;25.94;50.92;101087.06;5115457;28;8827;-75
2021/07/24 06:06:12;;;;;;;;;56.50;45.50;;;;;26.11;51.35;101102.97;5100477;28;8822;-76
2021/07/24 06:09:07;;;;;;;;;29.25;28.75;;;;;26.13;52.23;101103.34;5113282;28;8827;-75
2021/07/24 06:12:03;;;;;;;;;21.20;21.20;;;;;26.33;50.70;101103.44;5113165;28;8840;-75
2021/07/24 06:15:00;;;;;;;;;48.25;40.25;;;;;26.41;51.14;101102.13;5112259;28;8854;-76
2021/07/24 06:17:56;;;;;;;;;32.75;30.25;;;;;26.38;50.95;101096.47;5099788;28;8850;-77
2021/07/24 06:20:52;;;;;;;;;14.80;14.80;;;;;26.37;50.15;101100.53;5113191;28;8849;-76
2021/07/24 06:23:47;;;;;;;;;21.80;20.40;;;;;26.42;48.62;101097.25;5114316;28;8830;-77
2021/07/24 06:26:38;;;;;;;;;27.60;26.60;;;;;26.59;49.10;101104.66;5114242;28;8853;-75
2021/07/24 06:29:34;;;;;;;;;43.00;36.75;;;;;26.80;51.08;101098.63;5114202;28;8845;-76
2021/07/24 06:32:30;;;;;;;;;26.00;25.80;;;;;27.03;48.81;101099.81;5100359;28;8845;-76
2021/07/24 06:35:27;;;;;;;;;28.00;27.80;;;;;27.22;47.73;101096.25;5112614;28;8825;-76
2021/07/24 06:38:09;;;;;;;;;16.40;16.40;;;;;27.24;47.54;101099.44;5105254;28;8839;-75
2021/07/24 06:41:07;;;;;;;;;25.80;25.20;;;;;27.17;46.52;101096.75;5104662;28;8865;-76
2021/07/24 06:44:03;;;;;;;;;21.80;21.00;;;;;27.07;47.21;101100.59;5092849;28;8844;-76
2021/07/24 06:46:59;;;;;;;;;19.00;19.00;;;;;27.08;47.33;101105.03;5087152;28;8841;-75
2021/07/24 06:49:27;;;;;;;;;22.60;22.60;;;;;27.12;48.34;101102.91;5112081;28;8819;-75
2021/07/24 06:52:08;;;;;;;;;16.20;16.20;;;;;27.43;46.98;101107.16;5108812;28;8862;-76
2021/07/24 06:54:36;;;;;;;;;17.80;17.80;;;;;27.64;46.47;101102.28;5111622;28;8851;-76
2021/07/24 06:57:32;;;;;;;;;25.60;25.00;;;;;27.72;47.24;101105.78;5098539;28;8829;-77
2021/07/24 07:00:29;;;;;;;;;19.20;19.20;;;;;27.66;47.45;101111.16;5113408;28;8823;-75
2021/07/24 07:03:24;;;;;;;;;14.00;14.00;;;;;27.82;45.10;101108.38;5111907;28;8843;-75
2021/07/24 07:06:20;;;;;;;;;14.60;14.60;;;;;27.87;46.61;101105.03;5112660;28;8798;-75
2021/07/24 07:09:16;;;;;;;;;25.00;23.60;;;;;28.16;44.98;101095.84;5094190;28;8829;-74
2021/07/24 07:12:03;;;;;;;;;18.40;18.40;;;;;27.93;45.80;101111.78;5094401;28;8918;-74
2021/07/24 07:14:59;;;;;;;;;7.80;7.80;;;;;28.16;45.46;101099.50;5107444;28;8906;-73
2021/07/24 07:17:55;;;;;;;;;16.60;16.60;;;;;28.41;44.77;101101.75;5073179;28;8823;-74
2021/07/24 07:20:51;;;;;;;;;13.80;13.80;;;;;28.10;43.89;101101.25;5101311;28;8848;-74
2021/07/24 07:23:48;;;;;;;;;14.00;14.00;;;;;28.26;43.13;101101.25;5103188;28;8803;-74
2021/07/24 07:26:40;;;;;;;;;14.20;14.20;;;;;28.41;43.30;101100.94;5087397;28;8884;-74
2021/07/24 07:29:36;;;;;;;;;13.20;13.20;;;;;27.94;43.08;101099.19;5110702;28;8815;-75
2021/07/24 07:32:31;;;;;;;;;14.00;14.00;;;;;28.42;44.38;101097.66;5107998;28;8821;-75
2021/07/24 07:35:27;;;;;;;;;13.40;13.40;;;;;28.64;42.61;101099.97;5107194;28;8833;-75
2021/07/24 07:38:22;;;;;;;;;15.40;15.20;;;;;28.56;42.74;101095.69;5110578;28;8821;-76
2021/07/24 07:41:04;;;;;;;;;12.40;11.80;;;;;28.75;41.56;101097.63;5110823;28;9565;-76
2021/07/24 07:44:00;;;;;;;;;8.60;8.60;;;;;28.70;41.17;101098.97;5096811;28;8837;-76
2021/07/24 07:46:27;;;;;;;;;12.00;12.00;;;;;28.83;42.27;101098.25;5111605;28;8825;-76
2021/07/24 07:49:23;;;;;;;;;9.40;8.80;;;;;28.87;39.50;101090.41;5110800;28;8849;-76
2021/07/24 07:52:10;;;;;;;;;10.60;10.60;;;;;28.67;39.66;101087.69;5111260;28;9676;-76
2021/07/24 07:55:06;;;;;;;;;8.80;8.80;;;;;28.90;40.47;101084.63;5091017;28;8836;-76
2021/07/24 07:57:34;;;;;;;;;11.20;11.20;;;;;28.90;41.50;101100.91;5095527;28;9624;-77
2021/07/24 08:00:29;;;;;;;;;8.20;8.20;;;;;28.71;40.83;101096.94;5112315;28;8865;-77
2021/07/24 08:03:28;;;;;;;;;8.80;8.60;;;;;28.59;40.85;101106.19;5112266;28;8844;-78
2021/07/24 08:05:55;;;;;;;;;8.80;8.80;;;;;28.62;40.69;101096.78;5113284;28;8845;-78
2021/07/24 08:08:51;;;;;;;;;8.00;8.00;;;;;28.98;40.74;101108.81;5115828;28;8841;-77
2021/07/24 08:11:47;;;;;;;;;8.40;8.40;;;;;28.82;40.20;101094.59;5115492;28;8935;-77
2021/07/24 08:14:43;;;;;;;;;7.40;7.40;;;;;29.28;39.87;101096.19;5105361;28;8822;-76
2021/07/24 08:17:40;;;;;;;;;8.80;8.80;;;;;29.72;38.70;101107.16;5116232;28;8850;-76
2021/07/24 08:20:40;;;;;;;;;5.80;5.80;;;;;29.60;37.59;101109.56;5082264;28;8960;-78
2021/07/24 08:23:22;;;;;;;;;6.00;6.00;;;;;29.68;36.31;101106.50;5116696;28;8857;-78
2021/07/24 08:26:18;;;;;;;;;11.20;11.20;;;;;29.67;38.22;101104.88;5094072;28;8938;-75
2021/07/24 08:28:46;;;;;;;;;9.20;9.20;;;;;29.40;38.70;101100.34;5096925;28;8980;-75
2021/07/24 08:31:42;;;;;;;;;9.40;9.40;;;;;29.86;37.88;101110.38;5097749;28;8828;-73
2021/07/24 08:34:37;;;;;;;;;7.80;7.80;;;;;30.32;37.29;101110.19;5095409;28;8820;-74
2021/07/24 08:37:33;;;;;;;;;7.40;7.40;;;;;30.17;36.94;101115.56;5110213;28;8837;-73
2021/07/24 08:40:11;;;;;;;;;5.80;5.80;;;;;30.22;37.16;101114.19;5081044;28;8896;-74
2021/07/24 08:42:39;;;;;;;;;7.60;7.60;;;;;30.13;36.20;101118.50;5108422;28;8868;-74
2021/07/24 08:45:35;;;;;;;;;8.40;8.40;;;;;30.28;36.58;101116.00;5094326;28;8819;-74
2021/07/24 08:48:31;;;;;;;;;1.80;1.80;;;;;30.48;35.16;101114.97;5107665;28;9576;-74
2021/07/24 08:51:16;;;;;;;;;5.60;5.60;;;;;30.62;35.28;101115.28;5107132;28;8826;-74
2021/07/24 08:53:44;;;;;;;;;5.80;5.80;;;;;30.69;34.94;101115.06;5098145;28;9717;-75
2021/07/24 08:56:41;;;;;;;;;7.80;7.80;;;;;30.70;35.18;101122.38;5108208;28;8936;-72
2021/07/24 08:59:30;;;;;;;;;4.80;4.80;;;;;30.29;35.37;101113.94;5108379;28;8842;-72
2021/07/24 09:02:28;;;;;;;;;4.60;4.60;;;;;30.08;34.99;101119.09;5108040;28;8858;-72
2021/07/24 09:05:04;;;;;;;;;9.40;9.40;;;;;30.66;35.02;101118.84;5116245;28;8856;-75
2021/07/24 09:07:36;;;;;;;;;6.00;6.00;;;;;30.64;32.95;101118.47;5095297;28;8826;-74
2021/07/24 09:10:20;;;;;;;;;4.20;4.20;;;;;31.11;32.67;101117.66;5094814;28;8824;-72
2021/07/24 09:12:56;;;;;;;;;3.00;3.00;;;;;31.21;33.36;101118.56;5098181;28;8861;-72
2021/07/24 09:15:54;;;;;;;;;4.20;4.20;;;;;31.57;32.13;101117.25;5086873;28;8812;-72
2021/07/24 09:18:53;;;;;;;;;2.20;2.20;;;;;31.82;29.85;101119.97;5091292;28;9614;-71
2021/07/24 09:21:48;;;;;;;;;5.00;5.00;;;;;31.17;32.33;101126.47;5097059;28;8833;-73
2021/07/24 09:24:44;;;;;;;;;5.00;5.00;;;;;31.65;32.10;101118.56;5110669;28;8817;-72
2021/07/24 09:27:46;;;;;;;;;2.60;2.60;;;;;31.64;31.38;101116.97;5102228;28;9565;-72
2021/07/24 09:30:42;;;;;;;;;3.80;3.80;;;;;31.46;32.92;101118.47;5087839;28;8820;-73
2021/07/24 09:33:49;;;;;;;;;5.00;5.00;;;;;31.12;33.50;101119.25;5073688;28;8824;-73
2021/07/24 09:36:46;;;;;;;;;5.00;5.00;;;;;31.33;33.33;101119.78;5111762;28;8901;-73
2021/07/24 09:39:43;;;;;;;;;5.00;5.00;;;;;31.45;33.80;101116.88;5096425;28;8861;-73
2021/07/24 09:42:13;;;;;;;;;5.80;5.80;;;;;31.05;33.87;101121.56;5095727;28;8848;-73
2021/07/24 09:45:11;;;;;;;;;4.20;4.20;;;;;30.42;33.77;101109.81;5115316;28;8823;-74
2021/07/24 09:48:14;;;;;;;;;6.00;6.00;;;;;30.43;34.94;101119.19;5096831;28;8854;-73
2021/07/24 09:50:47;;;;;;;;;7.00;7.00;;;;;30.31;34.45;101108.59;5099236;28;8835;-73
2021/07/24 09:53:45;;;;;;;;;6.80;5.80;;;;;30.51;35.47;101097.72;5080358;28;8824;-74
2021/07/24 09:56:42;;;;;;;;;4.00;4.00;;;;;30.32;33.36;101110.19;5104509;28;8892;-73
2021/07/24 09:59:38;;;;;;;;;6.00;6.00;;;;;30.24;35.08;101103.13;5102655;28;8963;-72
2021/07/24 10:02:30;;;;;;;;;10.00;10.00;;;;;29.67;36.35;101099.16;5114142;28;8933;-73
2021/07/24 10:04:58;;;;;;;;;12.40;12.20;;;;;29.63;36.64;101107.84;5110244;28;8855;-72
2021/07/24 10:07:31;;;;;;;;;11.60;11.60;;;;;29.41;37.07;101099.09;5112441;28;8849;-72
2021/07/24 10:10:19;;;;;;;;;11.00;11.00;;;;;29.77;36.85;101089.50;5105516;28;8826;-74
2021/07/24 10:13:11;;;;;;;;;11.60;11.60;;;;;30.21;35.74;101092.63;5114454;28;9649;-72
2021/07/24 10:15:50;;;;;;;;;8.60;8.60;;;;;30.44;36.17;101095.09;5090134;28;8843;-73
2021/07/24 10:18:47;;;;;;;;;12.60;12.60;;;;;30.59;36.07;101096.22;5113150;28;9567;-73
2021/07/24 10:21:43;;;;;;;;;7.20;7.20;;;;;30.16;35.36;101097.66;5096843;28;8857;-72
2021/07/24 10:24:39;;;;;;;;;8.40;8.40;;;;;29.69;35.26;101086.09;5101097;28;8810;-73
2021/07/24 10:27:17;;;;;;;;;10.40;10.40;;;;;29.91;36.71;101094.78;5114248;28;8853;-72
2021/07/24 10:30:13;;;;;;;;;12.80;12.60;;;;;29.99;35.86;101087.59;5111696;28;9578;-73
2021/07/24 10:33:11;;;;;;;;;10.60;8.20;;;;;30.16;35.26;101096.84;5112847;28;8948;-72
2021/07/24 10:36:15;;;;;;;;;9.40;7.80;;;;;30.59;34.26;101084.78;5113663;28;8845;-72
2021/07/24 10:39:17;;;;;;;;;6.20;6.20;;;;;30.57;33.85;101090.16;5114605;28;8833;-73
2021/07/24 10:42:14;;;;;;;;;7.20;7.20;;;;;30.36;34.15;101093.75;5104018;28;8841;-73
2021/07/24 10:44:42;;;;;;;;;9.00;8.00;;;;;30.87;32.70;101091.59;5088066;28;8870;-73
2021/07/24 10:48:13;;;;;;;;;11.00;10.80;;;;;31.25;32.93;101082.91;5109804;28;8926;-74
2021/07/24 10:51:14;;;;;;;;;17.60;17.60;;;;;31.49;33.04;101093.84;5104102;28;8819;-74
2021/07/24 10:54:10;;;;;;;;;13.00;13.00;;;;;31.50;33.45;101089.72;5091645;28;8857;-73
2021/07/24 10:56:45;;;;;;;;;18.20;18.20;;;;;31.35;32.82;101095.19;5109728;28;8934;-75
2021/07/24 10:59:40;;;;;;;;;12.60;12.60;;;;;31.24;35.37;101097.66;5082919;28;8870;-73
2021/07/24 11:02:10;;;;;;;;;10.20;10.20;;;;;31.36;33.45;101095.97;5111455;28;8907;-72
2021/07/24 11:05:29;;;;;;;;;11.20;11.20;;;;;31.34;33.43;101098.50;5108640;28;8825;-74
2021/07/24 11:09:01;;;;;;;;;5.00;5.00;;;;;31.10;32.72;101101.78;5111917;28;8849;-73
2021/07/24 11:12:08;;;;;;;;;6.00;6.00;;;;;31.34;31.24;101087.88;5098871;28;8862;-73
2021/07/24 11:15:09;;;;;;;;;6.80;6.80;;;;;31.77;31.94;101094.84;5094717;28;8827;-73
2021/07/24 11:18:19;;;;;;;;;5.60;5.60;;;;;31.91;31.00;101088.56;5097362;28;8831;-73
2021/07/24 11:21:14;;;;;;;;;8.80;8.80;;;;;32.08;31.84;101094.84;5110721;28;8841;-74
2021/07/24 11:24:11;;;;;;;;;15.40;15.40;;;;;32.14;32.49;101092.97;5111808;28;9992;-72
2021/07/24 11:27:07;;;;;;;;;8.00;8.00;;;;;32.21;32.33;101089.81;5112211;28;8930;-73
2021/07/24 11:29:48;;;;;;;;;12.60;12.60;;;;;32.07;32.58;101084.66;5112656;28;8907;-72
2021/07/24 11:32:32;;;;;;;;;10.80;9.60;;;;;32.18;32.91;101085.00;5108781;28;8855;-72
2021/07/24 11:35:01;;;;;;;;;6.80;6.80;;;;;32.18;32.71;101095.66;5107520;28;8849;-72
2021/07/24 11:37:58;;;;;;;;;4.20;4.20;;;;;32.29;31.81;101090.31;5109022;28;8871;-72
2021/07/24 11:41:03;;;;;;;;;5.20;5.20;;;;;31.67;31.93;101094.00;5107062;28;8834;-73
2021/07/24 11:43:59;;;;;;;;;5.80;5.80;;;;;32.12;31.53;101095.47;5096836;28;8827;-72
2021/07/24 11:47:00;;;;;;;;;5.60;5.60;;;;;32.47;31.73;101095.31;5110671;28;8815;-72
2021/07/24 11:49:29;;;;;;;;;14.40;8.80;;;;;32.85;30.15;101094.94;5110225;28;8861;-72
2021/07/24 11:52:10;;;;;;;;;9.60;9.00;;;;;33.10;31.32;101093.81;5113165;28;8865;-72
2021/07/24 11:55:07;;;;;;;;;5.00;5.00;;;;;32.81;30.02;101097.09;5096288;28;8811;-73
2021/07/24 11:57:48;;;;;;;;;4.80;4.80;;;;;32.86;30.92;101100.16;5089709;28;9569;-72
2021/07/24 12:00:31;;;;;;;;;4.20;4.20;;;;;32.64;30.44;101099.47;5111310;28;8808;-73
2021/07/24 12:03:30;;;;;;;;;4.20;3.80;;;;;31.92;31.29;101097.94;5097063;28;8826;-72
2021/07/24 12:06:12;;;;;;;;;4.60;4.60;;;;;31.87;31.81;101099.34;5107154;28;8843;-73
2021/07/24 12:09:09;;;;;;;;;5.60;5.60;;;;;31.61;31.92;101107.28;5090078;28;9003;-74
2021/07/24 12:11:59;;;;;;;;;2.60;2.60;;;;;31.47;32.10;101097.19;5105234;28;8819;-72
2021/07/24 12:14:58;;;;;;;;;4.20;4.20;;;;;31.48;31.84;101104.50;5109340;28;8858;-73
2021/07/24 12:17:30;;;;;;;;;4.80;4.80;;;;;31.49;31.81;101100.38;5102427;28;8868;-72
2021/07/24 12:20:12;;;;;;;;;2.80;2.20;;;;;31.85;28.86;101099.03;5108406;28;8834;-72
2021/07/24 12:22:53;;;;;;;;;4.00;4.00;;;;;31.85;30.52;101103.94;5103813;28;8837;-73
2021/07/24 12:25:24;;;;;;;;;3.20;3.20;;;;;31.41;30.96;101101.09;5107993;28;8853;-73
2021/07/24 12:27:52;;;;;;;;;7.60;7.20;;;;;31.72;31.63;101099.06;5083385;28;8838;-73
2021/07/24 12:30:27;;;;;;;;;3.40;3.40;;;;;31.45;32.01;101098.94;5098988;28;8925;-73
2021/07/24 12:33:46;;;;;;;;;4.00;4.00;;;;;31.17;34.01;101110.09;5111268;28;8829;-73
2021/07/24 12:36:22;;;;;;;;;4.00;4.00;;;;;30.98;32.64;101105.53;5110600;28;8884;-72
2021/07/24 12:38:51;;;;;;;;;3.60;3.60;;;;;31.13;32.61;101115.16;5092826;28;8850;-73
2021/07/24 12:41:32;;;;;;;;;3.00;3.00;;;;;31.69;31.25;101097.16;5102997;28;8823;-72
2021/07/24 12:44:04;;;;;;;;;2.40;2.40;;;;;31.83;32.17;101107.28;5112810;28;8849;-72
2021/07/24 12:47:14;;;;;;;;;2.00;2.00;;;;;32.02;30.04;101105.31;5083109;28;8890;-72
2021/07/24 12:50:15;;;;;;;;;3.00;3.00;;;;;31.67;32.54;101111.13;5105309;28;9578;-73
2021/07/24 12:52:50;;;;;;;;;3.00;3.00;;;;;31.75;31.94;101103.88;5108928;28;8833;-72
2021/07/24 12:55:26;;;;;;;;;3.00;3.00;;;;;31.58;32.70;101107.41;5104373;28;8830;-72
2021/07/24 12:57:53;;;;;;;;;2.60;2.60;;;;;31.23;32.08;101104.63;5114020;28;8833;-72
2021/07/24 13:00:24;;;;;;;;;3.00;3.00;;;;;30.93;32.42;101106.09;5111087;28;8938;-72
2021/07/24 13:02:51;;;;;;;;;3.60;3.60;;;;;31.15;32.15;101106.94;5116119;28;8850;-72
2021/07/24 13:05:20;;;;;;;;;2.20;2.20;;;;;31.59;31.85;101104.06;5111640;28;8853;-73
2021/07/24 13:08:16;;;;;;;;;2.20;2.20;;;;;31.18;31.32;101102.34;5105724;28;8825;-73
2021/07/24 13:11:11;;;;;;;;;2.40;2.40;;;;;31.38;30.52;101111.41;5095334;28;8920;-72
2021/07/24 13:14:07;;;;;;;;;2.00;2.00;;;;;32.09;31.16;101105.81;5106342;28;8823;-73
2021/07/24 13:17:03;;;;;;;;;3.00;3.00;;;;;32.19;30.42;101105.84;5113475;28;8961;-73
2021/07/24 13:19:46;;;;;;;;;3.00;3.00;;;;;31.98;30.09;101107.53;5110647;28;8846;-72